Time;durP1;ratioP1;P1;durP2;ratioP2;P2;SDS_P1;SDS_P2;PMS_P1;PMS_P2;Temp;Humidity;BMP_temperature;BMP_pressure;BME280_temperature;BME280_humidity;BME280_pressure;Samples;Min_cycle;Max_cycle;Signal;HPM_P1;HPM_P2
2021/10/24 00:01:52;;;;;;;82.45;36.38;;;;;;;1.46;70.66;95491.53;1645075;87;21070;-60
2021/10/24 00:04:19;;;;;;;79.03;34.13;;;;;;;1.50;70.39;95490.98;1636730;87;21055;-59
2021/10/24 00:06:46;;;;;;;74.00;31.30;;;;;;;1.47;70.29;95482.25;1642182;87;21118;-60
2021/10/24 00:09:13;;;;;;;87.37;34.25;;;;;;;1.45;70.44;95479.13;1639931;87;21004;-60
2021/10/24 00:11:41;;;;;;;90.77;36.45;;;;;;;1.46;70.59;95477.19;1640055;85;21467;-60
2021/10/24 00:14:07;;;;;;;80.90;34.50;;;;;;;1.47;70.32;95476.83;1636414;87;21035;-61
2021/10/24 00:16:35;;;;;;;66.87;30.05;;;;;;;1.45;70.20;95480.48;1631277;86;20979;-61
2021/10/24 00:19:02;;;;;;;60.00;25.77;;;;;;;1.40;70.34;95478.68;1635026;87;21837;-61
2021/10/24 00:21:29;;;;;;;90.05;39.55;;;;;;;1.38;70.35;95475.00;1633106;87;21063;-60
2021/10/24 00:23:57;;;;;;;80.55;37.73;;;;;;;1.24;70.22;95477.55;1643157;87;21066;-60
2021/10/24 00:26:23;;;;;;;76.82;35.08;;;;;;;1.12;70.79;95487.27;1642374;87;21132;-60
2021/10/24 00:28:50;;;;;;;60.58;30.12;;;;;;;0.95;70.93;95486.47;1635341;86;21542;-59
2021/10/24 00:31:17;;;;;;;65.52;28.50;;;;;;;0.83;71.41;95495.41;1642157;87;21193;-61
2021/10/24 00:33:45;;;;;;;81.37;35.52;;;;;;;0.71;71.97;95493.70;1631689;87;20939;-60
2021/10/24 00:36:12;;;;;;;100.70;44.00;;;;;;;0.65;72.16;95493.82;1633471;87;21052;-60
2021/10/24 00:38:38;;;;;;;98.25;40.48;;;;;;;0.56;72.27;95505.47;1624846;88;21551;-61
2021/10/24 00:41:06;;;;;;;96.37;40.20;;;;;;;0.52;72.51;95508.70;1624989;88;21055;-60
2021/10/24 00:43:33;;;;;;;82.70;40.23;;;;;;;0.54;72.65;95513.18;1642537;86;21086;-60
2021/10/24 00:46:00;;;;;;;84.50;38.40;;;;;;;0.63;72.76;95515.62;1645164;87;21695;-60
2021/10/24 00:48:26;;;;;;;92.15;41.05;;;;;;;0.74;72.66;95520.04;1641556;86;21046;-62
2021/10/24 00:50:54;;;;;;;87.02;37.50;;;;;;;0.89;72.63;95519.66;1638261;87;21047;-59
2021/10/24 00:53:20;;;;;;;72.67;36.28;;;;;;;0.97;72.10;95522.09;1643221;87;21015;-61
2021/10/24 00:55:48;;;;;;;78.00;36.10;;;;;;;1.04;72.06;95515.43;1626078;87;21167;-60
2021/10/24 00:58:16;;;;;;;74.27;34.95;;;;;;;1.12;71.73;95510.88;1629152;87;21128;-60
2021/10/24 01:00:45;;;;;;;78.52;36.30;;;;;;;1.17;71.58;95507.84;1625292;87;21472;-61
2021/10/24 01:03:12;;;;;;;72.17;35.13;;;;;;;1.19;71.36;95511.75;1627892;87;21012;-60
2021/10/24 01:05:41;;;;;;;67.80;31.15;;;;;;;1.21;71.05;95513.52;1637126;87;21042;-60
2021/10/24 01:08:09;;;;;;;60.88;28.52;;;;;;;1.20;70.80;95513.31;1634744;87;21190;-60
2021/10/24 01:10:36;;;;;;;66.00;30.17;;;;;;;1.20;70.96;95510.61;1633691;87;21624;-60
2021/10/24 01:13:04;;;;;;;72.10;33.00;;;;;;;1.25;71.02;95517.05;1642016;87;21058;-61
2021/10/24 01:15:30;;;;;;;75.92;33.65;;;;;;;1.29;71.13;95513.80;1643933;87;21530;-60
2021/10/24 01:17:57;;;;;;;72.70;34.95;;;;;;;1.30;71.24;95513.23;1639335;87;21026;-60
2021/10/24 01:20:27;;;;;;;78.47;35.38;;;;;;;1.23;71.22;95515.28;1644412;87;21123;-60
2021/10/24 01:22:54;;;;;;;66.07;32.25;;;;;;;1.14;71.47;95520.19;1635961;87;21015;-60
2021/10/24 01:25:22;;;;;;;57.90;27.58;;;;;;;1.10;71.66;95513.95;1645280;87;21478;-61
2021/10/24 01:27:49;;;;;;;65.30;30.80;;;;;;;1.08;71.49;95516.81;1641952;87;21096;-60
2021/10/24 01:30:17;;;;;;;70.12;33.50;;;;;;;1.07;71.90;95521.46;1633448;86;21620;-58
2021/10/24 01:32:45;;;;;;;72.72;32.13;;;;;;;1.14;71.80;95517.47;1635294;86;21186;-60
2021/10/24 01:35:13;;;;;;;62.70;30.10;;;;;;;1.21;71.61;95521.65;1635711;87;20984;-60
2021/10/24 01:37:42;;;;;;;54.40;26.23;;;;;;;1.23;71.13;95526.13;1631274;87;21052;-61
2021/10/24 01:40:13;;;;;;;53.17;23.00;;;;;;;1.21;71.20;95527.06;1633149;86;21085;-60
2021/10/24 01:42:56;;;;;;;76.67;32.55;;;;;;;1.22;70.97;95527.27;1599954;87;21034;-60
2021/10/24 01:45:27;;;;;;;81.45;32.73;;;;;;;1.12;70.90;95525.78;1632620;87;21185;-60
2021/10/24 01:47:56;;;;;;;85.42;34.18;;;;;;;1.05;71.26;95529.17;1634963;87;21070;-61
2021/10/24 01:50:24;;;;;;;79.42;31.80;;;;;;;0.97;71.13;95526.16;1642942;87;20991;-60
2021/10/24 01:52:50;;;;;;;73.37;30.62;;;;;;;0.87;71.25;95530.08;1635016;87;21055;-59
2021/10/24 01:55:19;;;;;;;52.30;25.75;;;;;;;0.77;71.68;95528.78;1632930;87;21043;-61
2021/10/24 01:57:48;;;;;;;56.42;25.25;;;;;;;0.74;71.67;95533.58;1639659;87;21110;-61
2021/10/24 02:00:17;;;;;;;49.50;24.15;;;;;;;0.72;71.88;95531.81;1638843;86;21103;-60
2021/10/24 02:02:44;;;;;;;49.77;22.67;;;;;;;0.76;72.29;95522.39;1641876;87;21082;-60
2021/10/24 02:05:30;;;;;;;47.70;23.47;;;;;;;0.84;72.25;95527.55;1639876;86;21047;-60
2021/10/24 02:07:58;;;;;;;49.95;23.30;;;;;;;0.90;72.12;95522.00;1633423;86;21607;-60
2021/10/24 02:10:25;;;;;;;37.78;20.40;;;;;;;0.91;71.96;95526.27;1643796;86;22350;-60
2021/10/24 02:12:53;;;;;;;39.75;20.43;;;;;;;0.91;72.09;95520.86;1641166;87;21107;-60
2021/10/24 02:15:21;;;;;;;36.42;18.95;;;;;;;0.92;72.07;95526.48;1630188;87;21404;-60
2021/10/24 02:17:48;;;;;;;44.05;23.38;;;;;;;0.95;72.17;95528.45;1632117;87;21019;-60
2021/10/24 02:20:18;;;;;;;52.75;26.73;;;;;;;0.96;72.18;95531.95;1630287;86;21031;-60
2021/10/24 02:22:45;;;;;;;53.48;26.15;;;;;;;0.94;72.31;95520.12;1630137;86;21207;-61
2021/10/24 02:25:16;;;;;;;43.73;22.35;;;;;;;0.94;72.77;95528.84;1632879;87;21066;-60
2021/10/24 02:27:45;;;;;;;33.10;18.37;;;;;;;0.94;73.02;95530.95;1645134;87;21440;-63
2021/10/24 02:30:15;;;;;;;32.45;16.90;;;;;;;0.93;72.92;95534.81;1645013;87;21126;-60
2021/10/24 02:32:44;;;;;;;33.25;18.30;;;;;;;0.88;72.87;95531.63;1636167;87;21071;-61
2021/10/24 02:35:12;;;;;;;39.92;19.73;;;;;;;0.86;72.97;95537.44;1638363;87;21134;-60
2021/10/24 02:37:45;;;;;;;43.25;20.82;;;;;;;0.89;73.15;95536.70;1642908;87;28827;-60
2021/10/24 02:40:16;;;;;;;48.45;21.85;;;;;;;0.91;72.90;95530.34;1643463;86;21081;-61
2021/10/24 02:42:47;;;;;;;40.60;18.67;;;;;;;0.89;72.90;95536.70;1641690;87;21078;-60
2021/10/24 02:45:16;;;;;;;53.25;21.62;;;;;;;0.81;72.99;95541.79;1639495;87;21081;-61
2021/10/24 02:47:44;;;;;;;55.67;24.72;;;;;;;0.72;73.10;95539.94;1638455;87;21152;-60
2021/10/24 02:50:12;;;;;;;67.82;29.42;;;;;;;0.64;73.28;95532.88;1640189;86;20979;-60
2021/10/24 02:52:39;;;;;;;81.53;33.75;;;;;;;0.58;73.32;95540.31;1636632;87;21064;-59
2021/10/24 02:55:08;;;;;;;66.35;32.50;;;;;;;0.51;73.29;95543.69;1643716;87;21550;-60
2021/10/24 02:57:35;;;;;;;72.22;33.35;;;;;;;0.39;73.37;95537.70;1624941;88;20984;-59
2021/10/24 03:00:05;;;;;;;81.35;34.20;;;;;;;0.32;73.69;95546.48;1628646;87;21145;-61
2021/10/24 03:02:36;;;;;;;65.17;33.63;;;;;;;0.32;73.87;95561.92;1635960;87;20968;-60
2021/10/24 03:05:08;;;;;;;69.50;32.85;;;;;;;0.38;73.92;95562.61;1636046;87;21086;-61
2021/10/24 03:07:35;;;;;;;57.80;29.87;;;;;;;0.46;74.06;95567.01;1636619;87;21034;-60
2021/10/24 03:10:03;;;;;;;56.25;28.38;;;;;;;0.58;73.79;95572.20;1639449;87;21064;-59
2021/10/24 03:12:30;;;;;;;64.90;27.62;;;;;;;0.64;73.55;95568.06;1629540;87;21145;-60
2021/10/24 03:14:58;;;;;;;43.95;21.85;;;;;;;0.66;73.57;95560.91;1638969;86;21524;-60
2021/10/24 03:17:27;;;;;;;46.68;21.68;;;;;;;0.71;73.73;95568.16;1637633;87;21070;-60
2021/10/24 03:19:54;;;;;;;41.73;19.37;;;;;;;0.75;73.73;95571.69;1645104;86;21045;-60
2021/10/24 03:22:20;;;;;;;39.03;18.30;;;;;;;0.83;73.67;95569.88;1643792;87;20999;-60
2021/10/24 03:24:48;;;;;;;65.05;26.60;;;;;;;0.89;73.63;95570.55;1634579;87;22044;-60
2021/10/24 03:27:16;;;;;;;67.37;29.70;;;;;;;0.98;73.71;95565.64;1643396;87;21283;-60
2021/10/24 03:29:43;;;;;;;60.15;28.45;;;;;;;1.08;73.37;95563.66;1641796;87;21106;-60
2021/10/24 03:32:10;;;;;;;64.82;31.17;;;;;;;1.08;73.22;95565.02;1641326;86;21026;-60
2021/10/24 03:34:37;;;;;;;73.80;32.85;;;;;;;1.08;73.15;95570.44;1641300;86;37442;-60
2021/10/24 03:37:04;;;;;;;76.72;34.13;;;;;;;1.16;73.15;95567.25;1633522;87;21150;-61
2021/10/24 03:39:33;;;;;;;81.80;34.50;;;;;;;1.20;73.03;95570.22;1637637;86;21066;-59
2021/10/24 03:42:03;;;;;;;66.77;32.33;;;;;;;1.23;73.11;95577.61;1637927;87;21026;-60
2021/10/24 03:44:30;;;;;;;69.62;32.13;;;;;;;1.25;73.09;95571.80;1629794;87;21523;-60
2021/10/24 03:46:59;;;;;;;72.60;39.08;;;;;;;1.28;73.29;95584.05;1633961;87;21075;-62
2021/10/24 03:49:26;;;;;;;67.00;40.63;;;;;;;1.35;73.19;95577.36;1644457;86;21283;-60
2021/10/24 03:51:52;;;;;;;66.60;36.93;;;;;;;1.43;73.18;95579.02;1630424;87;21119;-60
2021/10/24 03:54:20;;;;;;;58.42;31.07;;;;;;;1.49;73.05;95579.48;1632513;86;21540;-61
2021/10/24 03:56:47;;;;;;;53.75;28.77;;;;;;;1.50;73.02;95580.45;1637808;87;21066;-61
2021/10/24 03:59:13;;;;;;;65.15;33.25;;;;;;;1.56;72.95;95581.71;1644935;87;21010;-61
2021/10/24 04:01:40;;;;;;;63.55;29.80;;;;;;;1.57;72.62;95579.20;1640441;86;21181;-60
2021/10/24 04:04:07;;;;;;;54.35;26.27;;;;;;;1.51;72.48;95583.97;1633091;87;21068;-61
2021/10/24 04:06:35;;;;;;;54.95;27.70;;;;;;;1.45;72.51;95586.21;1637779;87;21048;-61
2021/10/24 04:09:02;;;;;;;53.87;28.45;;;;;;;1.46;72.64;95589.13;1632799;87;21031;-61
2021/10/24 04:11:30;;;;;;;56.90;26.55;;;;;;;1.48;72.62;95586.83;1634531;87;21200;-61
2021/10/24 04:13:57;;;;;;;58.68;29.90;;;;;;;1.49;72.64;95585.67;1631222;87;21178;-61
2021/10/24 04:16:24;;;;;;;66.75;30.95;;;;;;;1.49;72.53;95591.69;1606450;88;21136;-60
2021/10/24 04:18:51;;;;;;;62.58;30.72;;;;;;;1.42;72.64;95594.29;1611062;89;21108;-59
2021/10/24 04:21:17;;;;;;;86.82;38.92;;;;;;;1.40;72.86;95593.32;1596052;89;21071;-60
2021/10/24 04:23:44;;;;;;;77.22;36.85;;;;;;;1.43;73.19;95589.07;1593018;90;20981;-60
2021/10/24 04:26:10;;;;;;;73.30;37.63;;;;;;;1.55;73.36;95584.78;1592749;90;21246;-60
2021/10/24 04:28:37;;;;;;;70.22;35.43;;;;;;;1.66;73.09;95594.59;1593091;90;21048;-61
2021/10/24 04:31:04;;;;;;;68.45;34.88;;;;;;;1.72;72.86;95585.56;1592661;90;21044;-60
2021/10/24 04:33:30;;;;;;;63.70;34.48;;;;;;;1.77;72.91;95588.14;1593165;90;21088;-61
2021/10/24 04:35:58;;;;;;;68.10;34.70;;;;;;;1.87;72.93;95593.48;1592761;90;21044;-61
2021/10/24 04:38:24;;;;;;;75.70;36.38;;;;;;;1.97;72.46;95590.88;1593180;90;21829;-59
2021/10/24 04:40:53;;;;;;;59.90;32.93;;;;;;;2.00;72.15;95586.66;1593091;89;20996;-60
2021/10/24 04:43:19;;;;;;;68.78;34.83;;;;;;;1.98;72.15;95588.96;1592780;90;21089;-61
2021/10/24 04:45:47;;;;;;;83.37;44.38;;;;;;;1.91;72.00;95599.72;1592894;90;21075;-60
2021/10/24 04:48:14;;;;;;;74.07;38.92;;;;;;;1.77;71.96;95599.58;1593114;90;20977;-60
2021/10/24 04:50:43;;;;;;;72.70;37.48;;;;;;;1.67;72.03;95609.72;1593076;89;21195;-60
2021/10/24 04:53:11;;;;;;;73.83;32.75;;;;;;;1.67;72.38;95605.65;1593175;90;21469;-59
2021/10/24 04:55:38;;;;;;;77.15;36.45;;;;;;;1.65;71.92;95603.88;1645961;87;21082;-62
2021/10/24 04:58:05;;;;;;;68.25;36.00;;;;;;;1.53;72.05;95613.61;1637598;87;21086;-59
2021/10/24 05:00:34;;;;;;;77.50;39.50;;;;;;;1.50;72.28;95613.58;1635753;87;21054;-60
2021/10/24 05:03:01;;;;;;;85.22;42.05;;;;;;;1.56;72.67;95621.03;1644134;87;21968;-61
2021/10/24 05:05:28;;;;;;;87.33;41.85;;;;;;;1.64;72.41;95628.09;1641522;87;21562;-60
2021/10/24 05:07:55;;;;;;;107.97;48.90;;;;;;;1.69;72.54;95625.05;1633602;87;20983;-59
2021/10/24 05:10:22;;;;;;;90.92;44.75;;;;;;;1.74;72.51;95631.52;1640081;87;21447;-60
2021/10/24 05:12:49;;;;;;;85.67;41.13;;;;;;;1.76;72.38;95634.05;1634105;86;21589;-60
2021/10/24 05:15:15;;;;;;;70.80;37.98;;;;;;;1.83;72.64;95636.06;1627612;87;21837;-60
2021/10/24 05:17:43;;;;;;;70.62;36.33;;;;;;;1.89;72.33;95640.00;1635271;87;20976;-60
2021/10/24 05:20:11;;;;;;;80.30;41.35;;;;;;;1.94;72.28;95644.53;1639517;87;21102;-61
2021/10/24 05:22:39;;;;;;;73.17;39.58;;;;;;;2.00;72.02;95649.06;1637754;87;21130;-62
2021/10/24 05:25:08;;;;;;;93.35;44.08;;;;;;;2.05;71.96;95648.72;1642716;86;21105;-62
2021/10/24 05:27:37;;;;;;;154.65;61.83;;;;;;;2.11;72.05;95653.45;1636568;87;21194;-62
2021/10/24 05:30:05;;;;;;;164.20;68.65;;;;;;;2.21;72.01;95656.08;1629381;87;21074;-62
2021/10/24 05:32:33;;;;;;;154.78;62.38;;;;;;;2.27;71.96;95660.01;1644826;87;20994;-61
2021/10/24 05:35:00;;;;;;;164.43;70.12;;;;;;;2.34;72.00;95662.23;1641902;86;21026;-62
2021/10/24 05:37:29;;;;;;;100.78;46.88;;;;;;;2.43;71.80;95662.72;1631720;86;21055;-61
2021/10/24 05:39:56;;;;;;;64.10;35.68;;;;;;;2.49;71.48;95672.67;1634377;87;21204;-62
2021/10/24 05:42:24;;;;;;;63.78;32.33;;;;;;;2.52;71.16;95670.56;1644620;87;20971;-62
2021/10/24 05:44:52;;;;;;;60.00;32.03;;;;;;;2.51;71.03;95684.70;1644230;87;21027;-61
2021/10/24 05:47:19;;;;;;;75.30;37.08;;;;;;;2.52;71.24;95697.72;1631274;87;21080;-60
2021/10/24 05:49:46;;;;;;;69.25;38.90;;;;;;;2.56;71.44;95696.61;1643124;87;20987;-62
2021/10/24 05:52:15;;;;;;;64.58;34.35;;;;;;;2.65;71.40;95699.80;1643445;86;21156;-61
2021/10/24 05:54:42;;;;;;;56.48;32.95;;;;;;;2.69;71.17;95706.03;1635538;87;21000;-62
2021/10/24 05:57:09;;;;;;;59.93;29.50;;;;;;;2.69;71.10;95707.39;1639839;86;21086;-62
2021/10/24 05:59:42;;;;;;;68.25;34.78;;;;;;;2.70;71.15;95709.55;1592016;86;21471;-61
2021/10/24 06:02:11;;;;;;;66.87;34.53;;;;;;;2.70;71.01;95719.05;1643248;86;21047;-62
2021/10/24 06:04:58;;;;;;;60.63;32.65;;;;;;;2.77;71.09;95721.27;1643423;87;21575;-61
2021/10/24 06:07:26;;;;;;;57.65;28.45;;;;;;;2.91;70.87;95723.33;1645303;87;20967;-61
2021/10/24 06:10:00;;;;;;;50.75;28.75;;;;;;;2.99;70.25;95723.58;1645273;87;21023;-61
2021/10/24 06:15:01;;;;;;;54.85;31.02;;;;;;;3.03;70.26;95738.77;1644035;86;21523;-61
2021/10/24 06:17:29;;;;;;;52.35;30.48;;;;;;;3.16;70.03;95735.19;1644463;87;21204;-62
2021/10/24 06:19:56;;;;;;;48.58;28.17;;;;;;;3.21;69.70;95739.71;1607765;87;20987;-64
2021/10/24 06:22:23;;;;;;;55.23;29.55;;;;;;;3.23;69.49;95745.55;1644246;87;21487;-61
2021/10/24 06:24:50;;;;;;;50.30;28.27;;;;;;;3.26;69.64;95753.55;1625124;88;21029;-62
2021/10/24 06:27:18;;;;;;;40.25;23.87;;;;;;;3.32;69.76;95743.88;1598108;88;21051;-62
2021/10/24 06:29:46;;;;;;;48.25;24.32;;;;;;;3.44;69.53;95753.88;1641483;87;21166;-61
2021/10/24 06:32:16;;;;;;;39.53;21.30;;;;;;;3.58;69.22;95754.78;1640187;86;20987;-61
2021/10/24 06:34:57;;;;;;;39.70;20.75;;;;;;;3.69;68.89;95756.22;1604747;87;20995;-62
2021/10/24 06:37:37;;;;;;;53.48;25.60;;;;;;;3.83;68.62;95759.04;1631753;85;21075;-61
2021/10/24 06:40:06;;;;;;;41.15;21.82;;;;;;;3.91;68.33;95753.23;1639331;86;21085;-59
2021/10/24 06:42:34;;;;;;;35.05;19.50;;;;;;;4.00;68.04;95762.42;1639581;86;21163;-62
2021/10/24 06:45:19;;;;;;;30.92;17.25;;;;;;;4.07;67.70;95773.38;1624927;87;21087;-61
2021/10/24 06:47:48;;;;;;;32.15;19.27;;;;;;;4.07;67.25;95783.66;1629385;87;21113;-60
2021/10/24 06:50:34;;;;;;;49.23;25.95;;;;;;;3.93;67.24;95776.00;1637803;87;21213;-60
2021/10/24 06:53:04;;;;;;;53.20;30.37;;;;;;;3.86;67.61;95781.41;1643377;87;21463;-61
2021/10/24 06:55:32;;;;;;;56.40;30.50;;;;;;;3.86;67.52;95784.90;1639964;87;21143;-60
2021/10/24 06:58:13;;;;;;;78.40;41.15;;;;;;;3.80;67.96;95787.78;1643752;87;21100;-59
2021/10/24 07:00:58;;;;;;;73.00;39.55;;;;;;;3.72;68.14;95783.43;1633044;86;21133;-60
2021/10/24 07:03:44;;;;;;;78.85;39.30;;;;;;;3.70;68.48;95803.44;1644082;87;21439;-61
2021/10/24 07:06:23;;;;;;;72.82;42.03;;;;;;;3.72;68.41;95801.12;1637930;87;21098;-60
2021/10/24 07:09:12;;;;;;;80.72;40.52;;;;;;;3.71;68.68;95802.28;1628569;86;22673;-61
2021/10/24 07:11:42;;;;;;;69.50;35.95;;;;;;;3.74;68.65;95808.36;1620811;86;21115;-61
2021/10/24 07:14:10;;;;;;;70.78;36.53;;;;;;;3.67;69.04;95800.72;1644683;87;21042;-61
2021/10/24 07:16:37;;;;;;;90.53;45.12;;;;;;;3.61;69.13;95809.80;1636630;87;21043;-62
2021/10/24 07:19:04;;;;;;;66.28;35.90;;;;;;;3.59;69.57;95818.13;1619385;88;21068;-61
2021/10/24 07:21:31;;;;;;;28.05;15.03;;;;;;;3.62;69.76;95810.56;1623885;87;21231;-62
2021/10/24 07:23:58;;;;;;;63.63;33.10;;;;;;;3.65;69.18;95803.03;1631528;87;21031;-62
2021/10/24 07:26:29;;;;;;;51.77;25.52;;;;;;;3.69;69.42;95807.33;1645570;86;21073;-65
2021/10/24 07:28:57;;;;;;;35.68;20.00;;;;;;;3.75;69.41;95807.20;1621343;87;21114;-62
2021/10/24 07:31:26;;;;;;;42.20;21.42;;;;;;;3.79;69.32;95809.36;1643414;87;20979;-61
2021/10/24 07:34:13;;;;;;;35.17;17.57;;;;;;;3.84;69.32;95809.00;1582028;90;21206;-62
2021/10/24 07:36:44;;;;;;;41.05;20.77;;;;;;;3.87;68.61;95809.59;1572759;90;20978;-61
2021/10/24 07:39:11;;;;;;;53.52;30.45;;;;;;;3.93;68.79;95822.28;1594826;88;21486;-60
2021/10/24 07:41:38;;;;;;;39.45;21.68;;;;;;;4.02;68.90;95818.06;1625207;87;21040;-61
2021/10/24 07:44:07;;;;;;;32.98;18.32;;;;;;;4.20;68.89;95822.28;1628550;87;21456;-61
2021/10/24 07:46:38;;;;;;;41.33;21.20;;;;;;;4.42;68.66;95819.27;1631528;87;21131;-60
2021/10/24 07:49:05;;;;;;;34.65;17.92;;;;;;;4.66;68.41;95818.63;1628659;87;21015;-61
2021/10/24 07:51:32;;;;;;;48.05;22.62;;;;;;;4.89;67.88;95819.09;1628797;86;21134;-61
2021/10/24 07:54:04;;;;;;;50.67;24.70;;;;;;;5.05;67.16;95822.27;1630796;87;21120;-60
2021/10/24 07:56:38;;;;;;;32.75;17.90;;;;;;;5.10;66.78;95813.70;1635051;87;21116;-63
2021/10/24 07:59:07;;;;;;;31.80;18.07;;;;;;;5.19;66.52;95803.19;1634527;87;21148;-61
2021/10/24 08:01:37;;;;;;;31.02;18.98;;;;;;;5.37;66.37;95798.54;1635590;86;21456;-62
2021/10/24 08:04:07;;;;;;;34.58;12.68;;;;;;;5.58;66.55;95793.13;1622423;86;21116;-63
2021/10/24 08:06:37;;;;;;;17.12;11.55;;;;;;;5.81;65.65;95794.30;1634157;86;21554;-63
2021/10/24 08:09:09;;;;;;;34.88;15.95;;;;;;;6.03;65.49;95790.41;1636870;86;21573;-61
2021/10/24 08:11:39;;;;;;;20.85;11.43;;;;;;;6.24;64.67;95795.83;1621739;87;21152;-63
2021/10/24 08:14:07;;;;;;;19.37;11.78;;;;;;;6.46;64.09;95792.43;1625931;87;21432;-62
2021/10/24 08:16:40;;;;;;;52.83;31.60;;;;;;;6.55;62.82;95784.61;1634225;86;21664;-61
2021/10/24 08:19:07;;;;;;;43.10;21.73;;;;;;;6.61;62.86;95781.64;1607353;88;21234;-61
2021/10/24 08:21:36;;;;;;;32.30;19.10;;;;;;;6.76;62.71;95780.42;1582549;89;21458;-62
2021/10/24 08:24:08;;;;;;;29.82;15.75;;;;;;;6.94;62.01;95779.75;1582108;88;21863;-65
2021/10/24 08:26:37;;;;;;;26.30;14.80;;;;;;;7.24;61.85;95771.96;1548040;90;21103;-61
2021/10/24 08:29:04;;;;;;;21.73;14.05;;;;;;;7.59;60.65;95770.92;1626654;87;21032;-61
2021/10/24 08:31:53;;;;;;;27.62;16.93;;;;;;;7.81;59.21;95775.05;1642809;85;21116;-62
2021/10/24 08:34:23;;;;;;;24.85;15.28;;;;;;;7.94;59.01;95774.75;1602978;88;21122;-62
2021/10/24 08:36:49;;;;;;;24.72;14.63;;;;;;;8.07;58.12;95772.46;1578583;88;21190;-61
2021/10/24 08:39:16;;;;;;;28.30;15.10;;;;;;;8.10;57.21;95768.91;1592893;87;21181;-61
2021/10/24 08:41:48;;;;;;;29.35;13.20;;;;;;;8.11;57.69;95777.92;1603912;88;21019;-61
2021/10/24 08:44:13;;;;;;;18.67;11.22;;;;;;;8.10;56.44;95778.50;1582446;90;20997;-62
2021/10/24 08:46:39;;;;;;;19.48;11.00;;;;;;;8.18;55.59;95781.41;1556505;89;21104;-61
2021/10/24 08:49:09;;;;;;;14.33;8.90;;;;;;;8.35;55.61;95786.52;1582985;88;21173;-63
2021/10/24 08:51:37;;;;;;;15.43;8.48;;;;;;;8.46;54.35;95775.62;1612531;88;21609;-63
2021/10/24 08:54:04;;;;;;;11.08;8.18;;;;;;;8.64;53.21;95776.20;1570668;88;21061;-61
2021/10/24 08:56:31;;;;;;;8.28;6.33;;;;;;;8.92;52.38;95769.02;1630607;87;21040;-61
2021/10/24 08:58:58;;;;;;;11.68;6.12;;;;;;;9.23;49.55;95778.19;1637620;86;21114;-62
2021/10/24 09:01:25;;;;;;;8.28;5.42;;;;;;;9.47;48.39;95771.56;1633477;86;21152;-62
2021/10/24 09:04:14;;;;;;;8.88;5.22;;;;;;;9.59;47.51;95767.49;1632891;86;21194;-62
2021/10/24 09:06:56;;;;;;;5.22;4.20;;;;;;;9.76;47.35;95774.69;1635186;87;21009;-61
2021/10/24 09:09:35;;;;;;;5.40;3.50;;;;;;;9.96;46.10;95770.03;1592837;90;20998;-62
2021/10/24 09:12:06;;;;;;;6.97;3.27;;;;;;;10.16;45.84;95779.14;1643453;86;21035;-62
2021/10/24 09:14:50;;;;;;;7.90;4.20;;;;;;;10.33;44.12;95779.44;1644369;86;21199;-65
2021/10/24 09:17:40;;;;;;;6.80;4.08;;;;;;;10.34;43.50;95778.23;1630223;86;21076;-63
2021/10/24 09:20:09;;;;;;;9.28;5.12;;;;;;;10.37;43.76;95781.52;1642751;86;21091;-63
2021/10/24 09:22:39;;;;;;;7.62;4.28;;;;;;;10.39;43.45;95774.38;1646174;87;21173;-62
2021/10/24 09:25:16;;;;;;;10.80;4.10;;;;;;;10.41;44.12;95780.84;1639662;86;21159;-63
2021/10/24 09:27:48;;;;;;;4.42;3.30;;;;;;;10.56;43.54;95781.53;1633297;86;21097;-62
2021/10/24 09:30:33;;;;;;;4.62;2.83;;;;;;;10.75;41.96;95778.81;1634608;86;21150;-62
2021/10/24 09:33:11;;;;;;;6.37;2.90;;;;;;;11.16;41.64;95781.89;1635700;86;21126;-62
2021/10/24 09:35:46;;;;;;;6.20;4.10;;;;;;;11.41;40.66;95780.78;1636533;86;21183;-63
2021/10/24 09:38:20;;;;;;;6.65;3.37;;;;;;;11.33;40.50;95779.37;1637499;85;21119;-62
2021/10/24 09:40:57;;;;;;;5.28;3.05;;;;;;;11.17;39.36;95786.81;1638168;86;21494;-61
2021/10/24 09:43:28;;;;;;;3.65;2.98;;;;;;;11.12;40.44;95778.45;1612789;86;21149;-62
2021/10/24 09:46:05;;;;;;;5.25;2.90;;;;;;;11.31;39.88;95774.89;1641527;86;21286;-63
2021/10/24 09:48:34;;;;;;;4.72;4.10;;;;;;;11.61;39.67;95771.89;1642506;87;21568;-63
2021/10/24 09:51:19;;;;;;;4.30;3.83;;;;;;;11.88;39.00;95773.04;1635794;86;21146;-62
2021/10/24 09:53:46;;;;;;;18.70;12.47;;;;;;;11.84;38.26;95770.35;1639021;86;21189;-61
2021/10/24 09:56:18;;;;;;;25.72;10.45;;;;;;;11.62;38.43;95780.33;1608656;87;21001;-62
2021/10/24 09:58:48;;;;;;;14.45;7.45;;;;;;;11.36;38.54;95778.51;1634781;86;21181;-61
2021/10/24 10:01:17;;;;;;;15.25;8.88;;;;;;;11.12;39.04;95775.69;1643132;86;21360;-62
2021/10/24 10:03:45;;;;;;;10.70;4.72;;;;;;;11.34;39.67;95768.52;1632689;87;21115;-64
2021/10/24 10:06:12;;;;;;;3.00;2.40;;;;;;;12.12;38.48;95772.41;1634760;85;21460;-62
2021/10/24 10:08:45;;;;;;;5.17;2.60;;;;;;;12.99;36.58;95777.02;1633339;86;21117;-64
2021/10/24 10:11:25;;;;;;;5.37;2.47;;;;;;;13.71;35.08;95780.01;1621775;87;20956;-62
2021/10/24 10:14:04;;;;;;;3.33;2.10;;;;;;;14.45;33.24;95790.28;1641188;86;21087;-62
2021/10/24 10:16:39;;;;;;;3.55;2.40;;;;;;;14.97;32.51;95792.59;1630876;85;21500;-63
2021/10/24 10:19:10;;;;;;;2.50;2.30;;;;;;;15.37;32.42;95788.60;1641876;85;21429;-61
2021/10/24 10:21:43;;;;;;;5.47;3.10;;;;;;;15.90;31.37;95785.97;1635074;86;21444;-63
2021/10/24 10:24:37;;;;;;;5.00;3.15;;;;;;;16.02;32.00;95770.59;1628176;85;21048;-61
2021/10/24 10:27:35;;;;;;;4.28;3.20;;;;;;;16.05;31.62;95773.05;1600186;88;21595;-63
2021/10/24 10:30:14;;;;;;;4.58;3.45;;;;;;;16.07;31.28;95774.14;1614617;88;21092;-62
2021/10/24 10:32:49;;;;;;;4.20;1.72;;;;;;;16.38;30.11;95777.04;1648195;87;21150;-63
2021/10/24 10:35:21;;;;;;;4.00;1.80;;;;;;;16.98;28.97;95777.27;1632810;86;21087;-63
2021/10/24 10:38:03;;;;;;;7.00;1.87;;;;;;;17.39;28.21;95773.86;1605579;87;21485;-63
2021/10/24 10:40:38;;;;;;;5.42;1.37;;;;;;;17.55;28.00;95776.31;1636702;87;21073;-62
2021/10/24 10:43:14;;;;;;;13.35;4.97;;;;;;;17.76;28.22;95772.55;1630424;87;21036;-63
2021/10/24 10:45:52;;;;;;;4.92;2.37;;;;;;;17.72;28.45;95781.69;1629713;86;21206;-63
2021/10/24 10:48:31;;;;;;;10.90;5.28;;;;;;;17.29;28.57;95773.71;1635691;87;21134;-63
2021/10/24 10:51:03;;;;;;;4.55;3.22;;;;;;;16.55;29.33;95779.70;1628990;87;21080;-63
2021/10/24 10:53:37;;;;;;;15.38;12.40;;;;;;;15.93;29.83;95775.33;1646947;85;21495;-62
2021/10/24 10:56:14;;;;;;;6.72;5.50;;;;;;;15.33;30.62;95784.56;1643961;86;21180;-62
2021/10/24 10:58:57;;;;;;;2.50;2.30;;;;;;;14.92;31.07;95785.45;1644099;86;21147;-62
2021/10/24 11:01:41;;;;;;;4.83;1.70;;;;;;;15.35;31.50;95774.42;1646077;86;21000;-63
2021/10/24 11:04:20;;;;;;;4.05;1.40;;;;;;;16.23;29.96;95769.73;1642575;87;21054;-63
2021/10/24 11:06:58;;;;;;;3.47;2.33;;;;;;;16.92;29.42;95757.65;1636730;86;21119;-62
2021/10/24 11:09:44;;;;;;;6.12;2.20;;;;;;;17.84;29.24;95765.42;1630751;86;21000;-62
2021/10/24 11:12:33;;;;;;;5.08;2.05;;;;;;;18.78;30.07;95773.30;1629952;86;21370;-63
2021/10/24 11:15:20;;;;;;;2.90;1.98;;;;;;;19.49;29.63;95762.19;1638818;86;20968;-63
2021/10/24 11:17:48;;;;;;;3.27;2.20;;;;;;;19.96;28.60;95766.81;1621886;87;21128;-63
2021/10/24 11:20:28;;;;;;;1.75;1.60;;;;;;;20.27;27.89;95768.63;1625682;86;21106;-63
2021/10/24 11:22:59;;;;;;;4.67;1.70;;;;;;;20.52;28.35;95763.02;1636904;87;21507;-62
2021/10/24 11:25:36;;;;;;;2.67;1.50;;;;;;;20.99;27.08;95759.84;1643621;87;21146;-62
2021/10/24 11:28:12;;;;;;;7.00;2.20;;;;;;;21.51;26.31;95758.66;1639516;86;21103;-62
2021/10/24 11:30:41;;;;;;;3.22;2.08;;;;;;;21.87;25.66;95755.22;1643292;86;21083;-63
2021/10/24 11:33:08;;;;;;;3.40;2.20;;;;;;;22.16;25.62;95755.09;1629465;87;21082;-62
2021/10/24 11:35:37;;;;;;;3.65;2.70;;;;;;;22.46;24.58;95750.73;1632666;86;21182;-64
2021/10/24 11:38:13;;;;;;;3.20;1.92;;;;;;;22.71;24.74;95742.87;1628880;86;21802;-63
2021/10/24 11:40:46;;;;;;;3.90;1.95;;;;;;;23.13;23.73;95740.02;1635555;86;21039;-63
2021/10/24 11:43:19;;;;;;;3.33;1.40;;;;;;;23.05;21.88;95750.14;1644421;86;20999;-64
2021/10/24 11:46:00;;;;;;;2.85;1.70;;;;;;;22.58;22.05;95748.14;1642845;86;21489;-63